sensor_id;sensor_type;location;lat;lon;timestamp;temperature;humidity
569;DHT22;269;48.884;9.192;2023-06-05T00:00:16;18.20;58.90
569;DHT22;269;48.884;9.192;2023-06-05T00:02:43;18.20;59.00
569;DHT22;269;48.884;9.192;2023-06-05T00:05:10;18.20;59.10
569;DHT22;269;48.884;9.192;2023-06-05T00:07:37;18.30;59.10
569;DHT22;269;48.884;9.192;2023-06-05T00:10:07;18.30;59.10
569;DHT22;269;48.884;9.192;2023-06-05T00:12:34;18.30;59.20
569;DHT22;269;48.884;9.192;2023-06-05T00:15:02;18.20;59.30
569;DHT22;269;48.884;9.192;2023-06-05T00:17:30;18.20;59.60
569;DHT22;269;48.884;9.192;2023-06-05T00:19:57;18.20;59.80
569;DHT22;269;48.884;9.192;2023-06-05T00:22:26;18.10;59.90
569;DHT22;269;48.884;9.192;2023-06-05T00:24:53;18.10;60.00
569;DHT22;269;48.884;9.192;2023-06-05T00:27:21;18.10;59.90
569;DHT22;269;48.884;9.192;2023-06-05T00:29:48;18.10;60.20
569;DHT22;269;48.884;9.192;2023-06-05T00:32:16;18.00;60.20
569;DHT22;269;48.884;9.192;2023-06-05T00:34:43;18.00;60.40
569;DHT22;269;48.884;9.192;2023-06-05T00:37:10;18.00;60.40
569;DHT22;269;48.884;9.192;2023-06-05T00:39:37;18.10;60.40
569;DHT22;269;48.884;9.192;2023-06-05T00:42:04;18.00;60.30
569;DHT22;269;48.884;9.192;2023-06-05T00:44:33;18.00;60.30
569;DHT22;269;48.884;9.192;2023-06-05T00:47:01;18.00;60.30
569;DHT22;269;48.884;9.192;2023-06-05T00:49:28;18.00;60.30
569;DHT22;269;48.884;9.192;2023-06-05T00:51:56;18.00;60.20
569;DHT22;269;48.884;9.192;2023-06-05T00:54:24;18.10;60.40
569;DHT22;269;48.884;9.192;2023-06-05T00:56:51;18.10;60.30
569;DHT22;269;48.884;9.192;2023-06-05T00:59:19;18.10;60.30
569;DHT22;269;48.884;9.192;2023-06-05T01:01:48;18.10;60.20
569;DHT22;269;48.884;9.192;2023-06-05T01:04:16;18.10;60.30
569;DHT22;269;48.884;9.192;2023-06-05T01:06:43;18.30;60.50
569;DHT22;269;48.884;9.192;2023-06-05T01:09:11;18.10;60.30
569;DHT22;269;48.884;9.192;2023-06-05T01:11:43;18.00;60.60
569;DHT22;269;48.884;9.192;2023-06-05T01:14:15;18.00;60.80
569;DHT22;269;48.884;9.192;2023-06-05T01:16:50;18.00;61.10
569;DHT22;269;48.884;9.192;2023-06-05T01:19:20;17.90;61.40
569;DHT22;269;48.884;9.192;2023-06-05T01:21:50;17.90;61.70
569;DHT22;269;48.884;9.192;2023-06-05T01:24:18;17.80;61.70
569;DHT22;269;48.884;9.192;2023-06-05T01:26:59;17.70;62.10
569;DHT22;269;48.884;9.192;2023-06-05T01:29:33;17.70;62.40
569;DHT22;269;48.884;9.192;2023-06-05T01:32:05;17.60;62.50
569;DHT22;269;48.884;9.192;2023-06-05T01:34:34;17.60;62.90
569;DHT22;269;48.884;9.192;2023-06-05T01:37:03;17.50;63.00
569;DHT22;269;48.884;9.192;2023-06-05T01:39:35;17.50;63.20
569;DHT22;269;48.884;9.192;2023-06-05T01:42:04;17.50;63.40
569;DHT22;269;48.884;9.192;2023-06-05T01:44:32;17.50;63.60
569;DHT22;269;48.884;9.192;2023-06-05T01:46:59;17.50;63.40
569;DHT22;269;48.884;9.192;2023-06-05T01:49:27;17.50;64.10
569;DHT22;269;48.884;9.192;2023-06-05T01:51:54;17.50;63.60
569;DHT22;269;48.884;9.192;2023-06-05T01:54:21;17.50;63.70
569;DHT22;269;48.884;9.192;2023-06-05T01:56:51;17.60;64.00
569;DHT22;269;48.884;9.192;2023-06-05T01:59:18;17.50;63.80
569;DHT22;269;48.884;9.192;2023-06-05T02:01:45;17.50;63.80
569;DHT22;269;48.884;9.192;2023-06-05T02:04:13;17.50;64.00
569;DHT22;269;48.884;9.192;2023-06-05T02:06:44;17.40;64.30
569;DHT22;269;48.884;9.192;2023-06-05T02:09:12;17.30;64.40
569;DHT22;269;48.884;9.192;2023-06-05T02:11:39;17.30;64.60
569;DHT22;269;48.884;9.192;2023-06-05T02:14:09;17.50;65.00
569;DHT22;269;48.884;9.192;2023-06-05T02:16:39;17.20;65.00
569;DHT22;269;48.884;9.192;2023-06-05T02:19:06;17.20;65.20
569;DHT22;269;48.884;9.192;2023-06-05T02:21:34;17.20;65.70
569;DHT22;269;48.884;9.192;2023-06-05T02:24:02;17.10;65.80
569;DHT22;269;48.884;9.192;2023-06-05T02:26:28;17.10;65.90
569;DHT22;269;48.884;9.192;2023-06-05T02:28:56;17.00;66.10
569;DHT22;269;48.884;9.192;2023-06-05T02:31:24;17.00;66.20
569;DHT22;269;48.884;9.192;2023-06-05T02:33:55;17.00;66.40
569;DHT22;269;48.884;9.192;2023-06-05T02:36:22;17.00;66.80
569;DHT22;269;48.884;9.192;2023-06-05T02:38:51;16.90;67.00
569;DHT22;269;48.884;9.192;2023-06-05T02:41:19;16.80;67.30
569;DHT22;269;48.884;9.192;2023-06-05T02:43:47;16.80;67.70
569;DHT22;269;48.884;9.192;2023-06-05T02:46:14;16.70;67.90
569;DHT22;269;48.884;9.192;2023-06-05T02:48:42;16.60;68.10
569;DHT22;269;48.884;9.192;2023-06-05T02:51:09;16.50;68.20
569;DHT22;269;48.884;9.192;2023-06-05T02:53:36;16.40;68.40
569;DHT22;269;48.884;9.192;2023-06-05T02:56:04;16.30;68.90
569;DHT22;269;48.884;9.192;2023-06-05T02:58:31;16.20;69.40
569;DHT22;269;48.884;9.192;2023-06-05T03:00:59;16.10;69.80
569;DHT22;269;48.884;9.192;2023-06-05T03:03:29;16.10;70.10
569;DHT22;269;48.884;9.192;2023-06-05T03:05:58;16.00;70.10
569;DHT22;269;48.884;9.192;2023-06-05T03:08:30;16.10;70.40
569;DHT22;269;48.884;9.192;2023-06-05T03:10:59;16.00;70.30
569;DHT22;269;48.884;9.192;2023-06-05T03:13:26;16.00;70.60
569;DHT22;269;48.884;9.192;2023-06-05T03:15:53;15.90;70.90
569;DHT22;269;48.884;9.192;2023-06-05T03:18:23;15.80;71.30
569;DHT22;269;48.884;9.192;2023-06-05T03:20:51;15.80;71.40
569;DHT22;269;48.884;9.192;2023-06-05T03:23:23;15.80;71.80
569;DHT22;269;48.884;9.192;2023-06-05T03:25:50;15.80;71.80
569;DHT22;269;48.884;9.192;2023-06-05T03:28:18;15.90;71.80
569;DHT22;269;48.884;9.192;2023-06-05T03:30:45;16.00;71.80
569;DHT22;269;48.884;9.192;2023-06-05T03:33:13;16.00;71.70
569;DHT22;269;48.884;9.192;2023-06-05T03:35:41;16.00;71.80
569;DHT22;269;48.884;9.192;2023-06-05T03:38:08;16.10;71.90
569;DHT22;269;48.884;9.192;2023-06-05T03:40:37;16.10;72.10
569;DHT22;269;48.884;9.192;2023-06-05T03:43:05;16.10;72.20
569;DHT22;269;48.884;9.192;2023-06-05T03:45:34;16.10;72.20
569;DHT22;269;48.884;9.192;2023-06-05T03:48:02;16.10;72.20
569;DHT22;269;48.884;9.192;2023-06-05T03:50:28;16.10;72.40
569;DHT22;269;48.884;9.192;2023-06-05T03:52:56;16.10;72.60
569;DHT22;269;48.884;9.192;2023-06-05T03:55:30;16.10;72.80
569;DHT22;269;48.884;9.192;2023-06-05T03:58:12;16.10;73.00
569;DHT22;269;48.884;9.192;2023-06-05T04:00:40;16.10;73.40
569;DHT22;269;48.884;9.192;2023-06-05T04:03:08;16.10;73.50
569;DHT22;269;48.884;9.192;2023-06-05T04:05:36;16.10;74.00
569;DHT22;269;48.884;9.192;2023-06-05T04:08:03;16.00;74.20
569;DHT22;269;48.884;9.192;2023-06-05T04:10:31;16.00;74.50
569;DHT22;269;48.884;9.192;2023-06-05T04:12:58;16.00;74.60
569;DHT22;269;48.884;9.192;2023-06-05T04:15:28;16.10;74.90
569;DHT22;269;48.884;9.192;2023-06-05T04:17:55;15.90;75.20
569;DHT22;269;48.884;9.192;2023-06-05T04:20:22;15.90;75.50
569;DHT22;269;48.884;9.192;2023-06-05T04:22:49;15.90;75.30
569;DHT22;269;48.884;9.192;2023-06-05T04:25:17;15.90;75.60
569;DHT22;269;48.884;9.192;2023-06-05T04:27:46;15.90;75.80
569;DHT22;269;48.884;9.192;2023-06-05T04:30:14;15.80;75.90
569;DHT22;269;48.884;9.192;2023-06-05T04:32:42;15.90;75.90
569;DHT22;269;48.884;9.192;2023-06-05T04:35:20;15.90;75.70
569;DHT22;269;48.884;9.192;2023-06-05T04:37:48;15.90;75.90
569;DHT22;269;48.884;9.192;2023-06-05T04:40:17;15.90;76.00
569;DHT22;269;48.884;9.192;2023-06-05T04:42:46;16.00;76.10
569;DHT22;269;48.884;9.192;2023-06-05T04:45:13;16.00;76.00
569;DHT22;269;48.884;9.192;2023-06-05T04:47:43;16.00;75.80
569;DHT22;269;48.884;9.192;2023-06-05T04:50:22;16.10;76.00
569;DHT22;269;48.884;9.192;2023-06-05T04:52:50;16.10;76.10
569;DHT22;269;48.884;9.192;2023-06-05T04:55:19;16.20;76.20
569;DHT22;269;48.884;9.192;2023-06-05T04:57:46;16.40;76.10
569;DHT22;269;48.884;9.192;2023-06-05T05:00:14;16.20;75.80
569;DHT22;269;48.884;9.192;2023-06-05T05:02:43;16.30;75.70
569;DHT22;269;48.884;9.192;2023-06-05T05:05:10;16.30;75.50
569;DHT22;269;48.884;9.192;2023-06-05T05:07:40;16.50;75.70
569;DHT22;269;48.884;9.192;2023-06-05T05:10:08;16.40;75.50
569;DHT22;269;48.884;9.192;2023-06-05T05:12:35;16.50;75.30
569;DHT22;269;48.884;9.192;2023-06-05T05:15:04;16.50;75.30
569;DHT22;269;48.884;9.192;2023-06-05T05:17:31;16.50;75.60
569;DHT22;269;48.884;9.192;2023-06-05T05:20:00;16.60;75.30
569;DHT22;269;48.884;9.192;2023-06-05T05:22:33;16.70;75.40
569;DHT22;269;48.884;9.192;2023-06-05T05:25:00;16.70;75.40
569;DHT22;269;48.884;9.192;2023-06-05T05:27:28;17.10;75.80
569;DHT22;269;48.884;9.192;2023-06-05T05:29:55;16.90;75.30
569;DHT22;269;48.884;9.192;2023-06-05T05:32:22;16.90;75.10
569;DHT22;269;48.884;9.192;2023-06-05T05:34:49;16.90;75.00
569;DHT22;269;48.884;9.192;2023-06-05T05:37:18;17.00;75.20
569;DHT22;269;48.884;9.192;2023-06-05T05:39:46;17.00;74.90
569;DHT22;269;48.884;9.192;2023-06-05T05:42:13;17.10;75.00
569;DHT22;269;48.884;9.192;2023-06-05T05:44:41;17.10;75.10
569;DHT22;269;48.884;9.192;2023-06-05T05:47:09;17.10;75.00
569;DHT22;269;48.884;9.192;2023-06-05T05:49:37;17.20;74.70
569;DHT22;269;48.884;9.192;2023-06-05T05:52:04;17.30;74.60
569;DHT22;269;48.884;9.192;2023-06-05T05:54:33;17.40;75.10
569;DHT22;269;48.884;9.192;2023-06-05T05:57:00;17.40;74.50
569;DHT22;269;48.884;9.192;2023-06-05T05:59:27;17.50;74.50
569;DHT22;269;48.884;9.192;2023-06-05T06:01:54;17.50;74.50
569;DHT22;269;48.884;9.192;2023-06-05T06:04:24;17.60;74.60
569;DHT22;269;48.884;9.192;2023-06-05T06:06:52;17.70;74.30
569;DHT22;269;48.884;9.192;2023-06-05T06:09:22;17.70;74.00
569;DHT22;269;48.884;9.192;2023-06-05T06:11:52;17.80;73.50
569;DHT22;269;48.884;9.192;2023-06-05T06:14:21;17.90;73.00
569;DHT22;269;48.884;9.192;2023-06-05T06:16:48;17.90;73.20
569;DHT22;269;48.884;9.192;2023-06-05T06:19:16;18.00;73.60
569;DHT22;269;48.884;9.192;2023-06-05T06:21:50;18.00;73.60
569;DHT22;269;48.884;9.192;2023-06-05T06:24:18;18.10;73.70
569;DHT22;269;48.884;9.192;2023-06-05T06:26:47;18.20;73.70
569;DHT22;269;48.884;9.192;2023-06-05T06:29:18;18.30;73.40
569;DHT22;269;48.884;9.192;2023-06-05T06:31:46;18.30;73.20
569;DHT22;269;48.884;9.192;2023-06-05T06:34:13;18.40;73.40
569;DHT22;269;48.884;9.192;2023-06-05T06:36:40;18.50;73.20
569;DHT22;269;48.884;9.192;2023-06-05T06:39:10;18.70;73.70
569;DHT22;269;48.884;9.192;2023-06-05T06:41:37;18.80;73.80
569;DHT22;269;48.884;9.192;2023-06-05T06:44:04;19.00;71.80
569;DHT22;269;48.884;9.192;2023-06-05T06:46:33;19.00;70.10
569;DHT22;269;48.884;9.192;2023-06-05T06:49:00;19.00;70.30
569;DHT22;269;48.884;9.192;2023-06-05T06:51:27;19.20;70.80
569;DHT22;269;48.884;9.192;2023-06-05T06:53:54;19.30;71.00
569;DHT22;269;48.884;9.192;2023-06-05T06:56:21;19.40;69.60
569;DHT22;269;48.884;9.192;2023-06-05T06:58:48;19.50;69.50
569;DHT22;269;48.884;9.192;2023-06-05T07:01:16;19.70;68.20
569;DHT22;269;48.884;9.192;2023-06-05T07:03:47;19.80;66.70
569;DHT22;269;48.884;9.192;2023-06-05T07:06:14;19.80;67.00
569;DHT22;269;48.884;9.192;2023-06-05T07:08:41;19.90;66.40
569;DHT22;269;48.884;9.192;2023-06-05T07:11:08;19.90;66.90
569;DHT22;269;48.884;9.192;2023-06-05T07:13:36;19.80;67.00
569;DHT22;269;48.884;9.192;2023-06-05T07:16:03;19.80;67.50
569;DHT22;269;48.884;9.192;2023-06-05T07:18:30;20.00;67.70
569;DHT22;269;48.884;9.192;2023-06-05T07:20:58;20.10;67.70
569;DHT22;269;48.884;9.192;2023-06-05T07:23:26;20.30;67.20
569;DHT22;269;48.884;9.192;2023-06-05T07:25:53;20.50;66.30
569;DHT22;269;48.884;9.192;2023-06-05T07:28:20;20.60;66.50
569;DHT22;269;48.884;9.192;2023-06-05T07:30:47;20.70;67.60
569;DHT22;269;48.884;9.192;2023-06-05T07:33:15;21.00;67.80
569;DHT22;269;48.884;9.192;2023-06-05T07:35:43;21.30;67.80
569;DHT22;269;48.884;9.192;2023-06-05T07:38:12;21.60;67.00
569;DHT22;269;48.884;9.192;2023-06-05T07:40:39;21.80;66.90
569;DHT22;269;48.884;9.192;2023-06-05T07:43:06;21.80;66.90
569;DHT22;269;48.884;9.192;2023-06-05T07:45:39;21.80;66.60
569;DHT22;269;48.884;9.192;2023-06-05T07:48:06;22.00;67.80
569;DHT22;269;48.884;9.192;2023-06-05T07:50:33;22.30;67.00
569;DHT22;269;48.884;9.192;2023-06-05T07:53:00;22.50;66.80
569;DHT22;269;48.884;9.192;2023-06-05T07:55:29;22.90;66.60
569;DHT22;269;48.884;9.192;2023-06-05T07:57:56;23.20;65.90
569;DHT22;269;48.884;9.192;2023-06-05T08:00:25;23.60;65.50
569;DHT22;269;48.884;9.192;2023-06-05T08:02:52;24.10;65.60
569;DHT22;269;48.884;9.192;2023-06-05T08:05:19;24.50;64.10
569;DHT22;269;48.884;9.192;2023-06-05T08:07:47;24.90;64.00
569;DHT22;269;48.884;9.192;2023-06-05T08:10:13;25.10;63.20
569;DHT22;269;48.884;9.192;2023-06-05T08:12:42;25.40;61.70
569;DHT22;269;48.884;9.192;2023-06-05T08:15:10;25.70;62.20
569;DHT22;269;48.884;9.192;2023-06-05T08:17:37;26.00;62.10
569;DHT22;269;48.884;9.192;2023-06-05T08:20:04;26.20;61.50
569;DHT22;269;48.884;9.192;2023-06-05T08:22:33;26.40;61.60
569;DHT22;269;48.884;9.192;2023-06-05T08:25:00;26.40;61.10
569;DHT22;269;48.884;9.192;2023-06-05T08:27:30;26.00;61.50
569;DHT22;269;48.884;9.192;2023-06-05T08:29:58;25.80;62.70
569;DHT22;269;48.884;9.192;2023-06-05T08:32:25;26.00;62.80
569;DHT22;269;48.884;9.192;2023-06-05T08:34:52;26.20;62.00
569;DHT22;269;48.884;9.192;2023-06-05T08:37:21;26.50;61.80
569;DHT22;269;48.884;9.192;2023-06-05T08:39:48;26.70;60.80
569;DHT22;269;48.884;9.192;2023-06-05T08:42:16;27.10;60.70
569;DHT22;269;48.884;9.192;2023-06-05T08:44:46;27.50;60.30
569;DHT22;269;48.884;9.192;2023-06-05T08:47:16;27.70;59.80
569;DHT22;269;48.884;9.192;2023-06-05T08:49:43;28.10;59.50
569;DHT22;269;48.884;9.192;2023-06-05T08:52:11;28.30;59.00
569;DHT22;269;48.884;9.192;2023-06-05T08:54:40;28.40;58.90
569;DHT22;269;48.884;9.192;2023-06-05T08:57:08;28.60;58.60
569;DHT22;269;48.884;9.192;2023-06-05T08:59:36;28.50;59.20
569;DHT22;269;48.884;9.192;2023-06-05T09:02:04;27.90;59.70
569;DHT22;269;48.884;9.192;2023-06-05T09:04:32;27.90;60.30
569;DHT22;269;48.884;9.192;2023-06-05T09:06:59;28.10;59.40
569;DHT22;269;48.884;9.192;2023-06-05T09:09:26;28.40;59.30
569;DHT22;269;48.884;9.192;2023-06-05T09:12:03;28.70;59.30
569;DHT22;269;48.884;9.192;2023-06-05T09:14:31;28.90;58.60
569;DHT22;269;48.884;9.192;2023-06-05T09:16:59;29.10;58.40
569;DHT22;269;48.884;9.192;2023-06-05T09:19:36;29.30;58.30
569;DHT22;269;48.884;9.192;2023-06-05T09:22:06;29.50;58.50
569;DHT22;269;48.884;9.192;2023-06-05T09:24:34;29.50;58.50
569;DHT22;269;48.884;9.192;2023-06-05T09:27:03;29.60;59.00
569;DHT22;269;48.884;9.192;2023-06-05T09:29:33;29.50;58.70
569;DHT22;269;48.884;9.192;2023-06-05T09:32:02;29.40;59.30
569;DHT22;269;48.884;9.192;2023-06-05T09:34:30;29.10;59.30
569;DHT22;269;48.884;9.192;2023-06-05T09:37:00;29.10;58.90
569;DHT22;269;48.884;9.192;2023-06-05T09:39:29;29.20;59.50
569;DHT22;269;48.884;9.192;2023-06-05T09:41:58;29.30;58.90
569;DHT22;269;48.884;9.192;2023-06-05T09:44:26;29.50;58.50
569;DHT22;269;48.884;9.192;2023-06-05T09:46:55;29.60;58.40
569;DHT22;269;48.884;9.192;2023-06-05T09:49:28;29.80;58.50
569;DHT22;269;48.884;9.192;2023-06-05T09:51:57;30.00;57.40
569;DHT22;269;48.884;9.192;2023-06-05T09:54:28;30.20;56.80
569;DHT22;269;48.884;9.192;2023-06-05T09:57:00;30.30;56.60
569;DHT22;269;48.884;9.192;2023-06-05T09:59:29;30.60;56.80
569;DHT22;269;48.884;9.192;2023-06-05T10:01:59;30.80;56.30
569;DHT22;269;48.884;9.192;2023-06-05T10:04:28;31.00;56.00
569;DHT22;269;48.884;9.192;2023-06-05T10:07:00;30.90;55.60
569;DHT22;269;48.884;9.192;2023-06-05T10:09:30;30.80;55.70
569;DHT22;269;48.884;9.192;2023-06-05T10:11:59;30.80;55.60
569;DHT22;269;48.884;9.192;2023-06-05T10:14:26;31.00;55.50
569;DHT22;269;48.884;9.192;2023-06-05T10:16:54;31.20;54.30
569;DHT22;269;48.884;9.192;2023-06-05T10:19:22;31.50;53.80
569;DHT22;269;48.884;9.192;2023-06-05T10:21:50;31.80;52.80
569;DHT22;269;48.884;9.192;2023-06-05T10:24:20;32.00;53.00
569;DHT22;269;48.884;9.192;2023-06-05T10:30:29;32.50;50.10
569;DHT22;269;48.884;9.192;2023-06-05T10:33:11;32.70;49.20
569;DHT22;269;48.884;9.192;2023-06-05T10:35:48;32.90;46.30
569;DHT22;269;48.884;9.192;2023-06-05T10:38:18;33.10;46.60
569;DHT22;269;48.884;9.192;2023-06-05T10:40:51;33.30;46.40
569;DHT22;269;48.884;9.192;2023-06-05T10:43:31;33.40;44.40
569;DHT22;269;48.884;9.192;2023-06-05T10:46:00;33.40;42.50
569;DHT22;269;48.884;9.192;2023-06-05T10:51:37;33.20;43.60
569;DHT22;269;48.884;9.192;2023-06-05T10:54:05;33.40;42.30
569;DHT22;269;48.884;9.192;2023-06-05T10:56:52;33.20;43.40
569;DHT22;269;48.884;9.192;2023-06-05T10:59:23;33.20;42.80
569;DHT22;269;48.884;9.192;2023-06-05T11:02:22;33.40;43.00
569;DHT22;269;48.884;9.192;2023-06-05T11:05:09;33.70;42.10
569;DHT22;269;48.884;9.192;2023-06-05T11:07:41;34.00;42.00
569;DHT22;269;48.884;9.192;2023-06-05T11:10:16;34.10;41.90
569;DHT22;269;48.884;9.192;2023-06-05T11:13:00;34.20;41.80
569;DHT22;269;48.884;9.192;2023-06-05T11:15:41;34.40;41.30
569;DHT22;269;48.884;9.192;2023-06-05T11:18:29;34.60;40.80
569;DHT22;269;48.884;9.192;2023-06-05T11:20:57;34.70;40.60
569;DHT22;269;48.884;9.192;2023-06-05T11:23:24;34.80;40.70
569;DHT22;269;48.884;9.192;2023-06-05T11:25:58;34.90;40.50
569;DHT22;269;48.884;9.192;2023-06-05T11:28:44;34.80;41.10
569;DHT22;269;48.884;9.192;2023-06-05T11:31:28;34.70;40.20
569;DHT22;269;48.884;9.192;2023-06-05T11:33:57;33.90;41.20
569;DHT22;269;48.884;9.192;2023-06-05T11:36:23;33.90;41.10
569;DHT22;269;48.884;9.192;2023-06-05T11:38:55;33.70;40.30
569;DHT22;269;48.884;9.192;2023-06-05T11:41:23;33.20;41.40
569;DHT22;269;48.884;9.192;2023-06-05T11:43:51;32.50;41.40
569;DHT22;269;48.884;9.192;2023-06-05T11:46:19;32.30;41.90
569;DHT22;269;48.884;9.192;2023-06-05T11:48:47;32.20;41.30
569;DHT22;269;48.884;9.192;2023-06-05T11:51:14;32.20;42.60
569;DHT22;269;48.884;9.192;2023-06-05T11:53:45;32.70;42.50
569;DHT22;269;48.884;9.192;2023-06-05T11:56:15;33.20;42.80
569;DHT22;269;48.884;9.192;2023-06-05T11:58:43;33.60;42.30
569;DHT22;269;48.884;9.192;2023-06-05T12:01:12;34.00;42.10
569;DHT22;269;48.884;9.192;2023-06-05T12:03:42;34.30;41.70
569;DHT22;269;48.884;9.192;2023-06-05T12:06:10;34.60;42.00
569;DHT22;269;48.884;9.192;2023-06-05T12:08:39;34.50;41.80
569;DHT22;269;48.884;9.192;2023-06-05T12:11:20;34.40;41.50
569;DHT22;269;48.884;9.192;2023-06-05T12:13:49;34.30;41.50
569;DHT22;269;48.884;9.192;2023-06-05T12:16:17;33.80;41.10
569;DHT22;269;48.884;9.192;2023-06-05T12:18:46;33.30;42.60
569;DHT22;269;48.884;9.192;2023-06-05T12:21:23;33.00;42.50
569;DHT22;269;48.884;9.192;2023-06-05T12:23:50;32.50;42.70
569;DHT22;269;48.884;9.192;2023-06-05T12:26:18;32.20;43.60
569;DHT22;269;48.884;9.192;2023-06-05T12:28:45;32.40;43.10
569;DHT22;269;48.884;9.192;2023-06-05T12:31:32;32.70;42.00
569;DHT22;269;48.884;9.192;2023-06-05T12:34:01;32.90;42.50
569;DHT22;269;48.884;9.192;2023-06-05T12:36:29;33.10;42.50
569;DHT22;269;48.884;9.192;2023-06-05T12:39:02;33.10;42.70
569;DHT22;269;48.884;9.192;2023-06-05T12:41:31;33.20;42.20
569;DHT22;269;48.884;9.192;2023-06-05T12:44:00;33.20;42.10
569;DHT22;269;48.884;9.192;2023-06-05T12:46:27;33.00;42.50
569;DHT22;269;48.884;9.192;2023-06-05T12:48:55;32.90;42.70
569;DHT22;269;48.884;9.192;2023-06-05T12:51:25;32.70;42.50
569;DHT22;269;48.884;9.192;2023-06-05T12:53:52;32.60;43.00
569;DHT22;269;48.884;9.192;2023-06-05T12:56:20;33.00;42.40
569;DHT22;269;48.884;9.192;2023-06-05T12:58:51;33.70;41.60
569;DHT22;269;48.884;9.192;2023-06-05T13:01:20;34.50;41.30
569;DHT22;269;48.884;9.192;2023-06-05T13:03:47;35.20;40.10
569;DHT22;269;48.884;9.192;2023-06-05T13:06:14;36.00;39.50
569;DHT22;269;48.884;9.192;2023-06-05T13:08:43;36.60;39.10
569;DHT22;269;48.884;9.192;2023-06-05T13:11:11;36.60;39.10
569;DHT22;269;48.884;9.192;2023-06-05T13:13:39;36.10;39.50
569;DHT22;269;48.884;9.192;2023-06-05T13:16:06;35.30;39.80
569;DHT22;269;48.884;9.192;2023-06-05T13:18:35;34.20;40.90
569;DHT22;269;48.884;9.192;2023-06-05T13:21:03;33.30;42.30
569;DHT22;269;48.884;9.192;2023-06-05T13:23:30;32.70;42.60
569;DHT22;269;48.884;9.192;2023-06-05T13:25:59;32.30;43.30
569;DHT22;269;48.884;9.192;2023-06-05T13:28:26;32.50;43.30
569;DHT22;269;48.884;9.192;2023-06-05T15:07:34;39.00;34.20
569;DHT22;269;48.884;9.192;2023-06-05T15:10:02;39.10;35.00
569;DHT22;269;48.884;9.192;2023-06-05T15:12:29;39.40;34.80
569;DHT22;269;48.884;9.192;2023-06-05T15:14:57;39.50;34.40
569;DHT22;269;48.884;9.192;2023-06-05T15:17:24;39.60;34.10
569;DHT22;269;48.884;9.192;2023-06-05T15:19:51;39.60;34.00
569;DHT22;269;48.884;9.192;2023-06-05T15:22:18;39.70;34.10
569;DHT22;269;48.884;9.192;2023-06-05T15:24:47;39.70;34.00
569;DHT22;269;48.884;9.192;2023-06-05T15:27:14;39.80;33.90
569;DHT22;269;48.884;9.192;2023-06-05T15:29:40;39.80;34.10
569;DHT22;269;48.884;9.192;2023-06-05T15:32:08;39.80;33.70
569;DHT22;269;48.884;9.192;2023-06-05T15:34:34;39.90;33.80
569;DHT22;269;48.884;9.192;2023-06-05T15:37:02;39.40;33.70
569;DHT22;269;48.884;9.192;2023-06-05T15:39:29;39.40;34.00
569;DHT22;269;48.884;9.192;2023-06-05T15:41:57;39.10;33.80
569;DHT22;269;48.884;9.192;2023-06-05T15:44:24;38.60;34.20
569;DHT22;269;48.884;9.192;2023-06-05T15:46:52;37.80;34.70
569;DHT22;269;48.884;9.192;2023-06-05T15:49:19;37.10;35.00
569;DHT22;269;48.884;9.192;2023-06-05T15:51:46;36.40;35.50
569;DHT22;269;48.884;9.192;2023-06-05T15:54:13;35.50;35.80
569;DHT22;269;48.884;9.192;2023-06-05T15:56:41;34.90;36.20
569;DHT22;269;48.884;9.192;2023-06-05T15:59:09;34.30;36.70
569;DHT22;269;48.884;9.192;2023-06-05T16:01:36;33.80;37.20
569;DHT22;269;48.884;9.192;2023-06-05T16:04:03;33.40;37.80
569;DHT22;269;48.884;9.192;2023-06-05T16:06:30;32.80;38.10
569;DHT22;269;48.884;9.192;2023-06-05T16:08:58;31.90;38.70
569;DHT22;269;48.884;9.192;2023-06-05T16:11:24;31.70;39.40
569;DHT22;269;48.884;9.192;2023-06-05T16:13:52;31.10;40.10
569;DHT22;269;48.884;9.192;2023-06-05T16:16:21;30.60;40.50
569;DHT22;269;48.884;9.192;2023-06-05T16:18:48;30.10;41.10
569;DHT22;269;48.884;9.192;2023-06-05T16:21:15;29.80;41.70
569;DHT22;269;48.884;9.192;2023-06-05T16:23:42;29.60;42.30
569;DHT22;269;48.884;9.192;2023-06-05T16:26:09;29.30;42.70
569;DHT22;269;48.884;9.192;2023-06-05T16:28:38;29.00;43.00
569;DHT22;269;48.884;9.192;2023-06-05T16:31:06;28.80;42.90
569;DHT22;269;48.884;9.192;2023-06-05T16:33:35;28.60;43.30
569;DHT22;269;48.884;9.192;2023-06-05T16:36:02;28.50;43.50
569;DHT22;269;48.884;9.192;2023-06-05T16:38:30;28.40;43.90
569;DHT22;269;48.884;9.192;2023-06-05T16:40:57;28.30;44.20
569;DHT22;269;48.884;9.192;2023-06-05T16:43:24;28.10;44.20
569;DHT22;269;48.884;9.192;2023-06-05T16:45:51;28.00;44.20
569;DHT22;269;48.884;9.192;2023-06-05T16:48:20;27.90;44.30
569;DHT22;269;48.884;9.192;2023-06-05T16:50:49;27.90;44.60
569;DHT22;269;48.884;9.192;2023-06-05T16:53:16;27.80;44.70
569;DHT22;269;48.884;9.192;2023-06-05T16:55:44;27.80;44.80
569;DHT22;269;48.884;9.192;2023-06-05T16:58:11;27.70;44.70
569;DHT22;269;48.884;9.192;2023-06-05T17:00:38;27.60;44.50
569;DHT22;269;48.884;9.192;2023-06-05T17:03:05;27.80;44.50
569;DHT22;269;48.884;9.192;2023-06-05T17:05:32;27.50;45.20
569;DHT22;269;48.884;9.192;2023-06-05T17:08:01;27.40;45.00
569;DHT22;269;48.884;9.192;2023-06-05T17:10:28;27.40;45.40
569;DHT22;269;48.884;9.192;2023-06-05T17:12:55;27.40;45.10
569;DHT22;269;48.884;9.192;2023-06-05T17:15:22;27.20;45.20
569;DHT22;269;48.884;9.192;2023-06-05T17:17:49;27.20;45.60
569;DHT22;269;48.884;9.192;2023-06-05T17:20:16;27.10;45.60
569;DHT22;269;48.884;9.192;2023-06-05T17:22:43;27.00;45.40
569;DHT22;269;48.884;9.192;2023-06-05T17:25:12;27.00;46.00
569;DHT22;269;48.884;9.192;2023-06-05T17:27:39;26.90;45.80
569;DHT22;269;48.884;9.192;2023-06-05T17:30:07;26.80;45.80
569;DHT22;269;48.884;9.192;2023-06-05T17:32:34;26.80;45.90
569;DHT22;269;48.884;9.192;2023-06-05T17:35:01;26.70;46.00
569;DHT22;269;48.884;9.192;2023-06-05T17:37:29;26.70;46.10
569;DHT22;269;48.884;9.192;2023-06-05T17:39:56;26.60;46.00
569;DHT22;269;48.884;9.192;2023-06-05T17:42:24;26.60;46.10
569;DHT22;269;48.884;9.192;2023-06-05T17:44:52;26.40;45.90
569;DHT22;269;48.884;9.192;2023-06-05T17:47:19;26.30;46.30
569;DHT22;269;48.884;9.192;2023-06-05T17:49:46;26.30;46.90
569;DHT22;269;48.884;9.192;2023-06-05T17:52:13;26.20;46.60
569;DHT22;269;48.884;9.192;2023-06-05T17:54:41;26.20;47.00
569;DHT22;269;48.884;9.192;2023-06-05T17:57:08;26.10;47.00
569;DHT22;269;48.884;9.192;2023-06-05T17:59:37;26.10;46.80
569;DHT22;269;48.884;9.192;2023-06-05T18:02:04;26.00;46.80
569;DHT22;269;48.884;9.192;2023-06-05T18:04:32;26.00;47.10
569;DHT22;269;48.884;9.192;2023-06-05T18:06:59;25.90;47.00
569;DHT22;269;48.884;9.192;2023-06-05T18:09:26;25.80;47.30
569;DHT22;269;48.884;9.192;2023-06-05T18:11:53;25.80;47.30
569;DHT22;269;48.884;9.192;2023-06-05T18:14:20;25.80;47.50
569;DHT22;269;48.884;9.192;2023-06-05T18:16:50;25.70;47.70
569;DHT22;269;48.884;9.192;2023-06-05T18:19:17;25.70;47.90
569;DHT22;269;48.884;9.192;2023-06-05T18:21:47;25.70;48.20
569;DHT22;269;48.884;9.192;2023-06-05T18:24:14;25.60;48.20
569;DHT22;269;48.884;9.192;2023-06-05T18:26:41;25.50;48.20